Details From SKIP - San Luis
To KELY - Ely Arpt Yelland Fld
Flight Number -
Tags Real
Created
Modified
Stats Distance 3,316 nm / 6,141 km
Max Altitude 0 ft / 0 m
Waypoints 3
Social Downloads 0
Likes 0
Share VATSIM

Download

Looking for another format? Having issues loading an existing format? Contact us
Advertisement - Login to hide

Notes

None

Route

SLI VCV ELY

ID Type Via Altitude Latitude Longitude Leg Dist Tot Dist Heading (true) Name
O SLI NDB - 0 ft / 0 m 0.85599˚ -77.67498˚ - 0 nm - SAN LUIS NDB
VCV VOR - 0 ft / 0 m 34.59417˚ -117.39000˚ 3008 nm 3008 nm 317° / 304° VICTORVILLE VOR-DME
O ELY VOR - 0 ft / 0 m 39.29814˚ -114.84831˚ 307 nm 3315 nm 23° / 24° ELY VOR-DME

Altitude Profile

Advertisement - Login to hide

Weather


0- 5 10 15 20 25 30 35+ Temperature / ° C

Clouds and Precipitation
Forecast for 2018-05-25 18:00 UTC. Updated 3 hours ago

Ground ~20,000 ft ~40,000 ft Winds

SKIP

Details ICAO SKIP (IPI)
Name SAN LUIS
Region Colombia
Timezone America/Bogota (UTC-5.0)
Stats Elevation 9,765 ft / 2,976 m (AMSL)
Location 0.861925° -77.671762°
Runways 1
Magnetic Variation 4.313° W

METAR

SKIP 252000Z 12009KT 9999 BKN016 14/09 A3037

Decode

TAF

Not found

Departure Runways

ID Width Length Bearing (true) Bearing (mag) Surface Threshold Offset Overrun Length
06 92 ft / 28 m 5,795 ft / 1,766 m 61.05° 65.36° Asphalt 0 ft / 0 m 0 ft / 0 m
24 92 ft / 28 m 5,795 ft / 1,766 m 241.05° 245.36° Asphalt 0 ft / 0 m 0 ft / 0 m

KELY

Details ICAO KELY (ELY)
Name Ely Arpt Yelland Fld
Region United States
Timezone America/Los_Angeles (UTC-7.0)
Stats Elevation 6,259 ft / 1,908 m (AMSL)
Location 39.299585° -114.842354°
Runways 2
Magnetic Variation 12.098° E

METAR

KELY 251953Z AUTO 16025G35KT 10SM CLR 23/M03 A3001 RMK AO2 PK WND 17035/1952 SLP081 T02281028

Decode

TAF

TAF KELY 251720Z 2518/2618 17020G30KT P6SM FEW100 FM252100 19025G35KT P6SM SCT090 FM260300 18015G25KT P6SM SKC FM260800 19010KT P6SM SKC

Decode

Destination Runways

ID Width Length Bearing (true) Bearing (mag) Surface Threshold Offset Overrun Length
12 59 ft / 18 m 4,819 ft / 1,469 m 140.73° 128.63° Asphalt 0 ft / 0 m 0 ft / 0 m
18 151 ft / 46 m 6,024 ft / 1,836 m 193.76° 181.66° Asphalt 0 ft / 0 m 200 ft / 61 m
30 59 ft / 18 m 4,819 ft / 1,469 m 320.73° 308.63° Asphalt 0 ft / 0 m 0 ft / 0 m
36 151 ft / 46 m 6,024 ft / 1,836 m 13.76° 1.66° Asphalt 0 ft / 0 m 200 ft / 61 m